sensor_id;sensor_type;location;lat;lon;timestamp;temperature;humidity
6662;DHT22;3367;48.714;8.994;2023-05-17T00:00:11;6.50;28.90
6662;DHT22;3367;48.714;8.994;2023-05-17T00:02:38;6.50;24.20
6662;DHT22;3367;48.714;8.994;2023-05-17T00:05:06;6.50;23.20
6662;DHT22;3367;48.714;8.994;2023-05-17T00:07:34;6.50;28.90
6662;DHT22;3367;48.714;8.994;2023-05-17T00:10:00;6.50;30.30
6662;DHT22;3367;48.714;8.994;2023-05-17T00:12:27;6.50;33.20
6662;DHT22;3367;48.714;8.994;2023-05-17T00:14:54;6.50;37.10
6662;DHT22;3367;48.714;8.994;2023-05-17T00:17:20;6.40;42.00
6662;DHT22;3367;48.714;8.994;2023-05-17T00:19:47;6.40;40.30
6662;DHT22;3367;48.714;8.994;2023-05-17T00:22:14;6.40;44.50
6662;DHT22;3367;48.714;8.994;2023-05-17T00:24:42;6.40;50.50
6662;DHT22;3367;48.714;8.994;2023-05-17T00:27:08;6.40;42.80
6662;DHT22;3367;48.714;8.994;2023-05-17T00:29:35;6.40;58.20
6662;DHT22;3367;48.714;8.994;2023-05-17T00:32:02;6.30;92.10
6662;DHT22;3367;48.714;8.994;2023-05-17T00:34:29;6.20;99.90
6662;DHT22;3367;48.714;8.994;2023-05-17T00:36:55;6.20;99.90
6662;DHT22;3367;48.714;8.994;2023-05-17T00:39:22;6.20;99.90
6662;DHT22;3367;48.714;8.994;2023-05-17T00:41:50;6.20;94.40
6662;DHT22;3367;48.714;8.994;2023-05-17T00:44:17;6.20;97.50
6662;DHT22;3367;48.714;8.994;2023-05-17T00:46:43;6.20;94.00
6662;DHT22;3367;48.714;8.994;2023-05-17T00:49:11;6.30;91.40
6662;DHT22;3367;48.714;8.994;2023-05-17T00:51:38;6.30;88.30
6662;DHT22;3367;48.714;8.994;2023-05-17T00:54:05;6.30;88.40
6662;DHT22;3367;48.714;8.994;2023-05-17T00:56:32;6.30;92.50
6662;DHT22;3367;48.714;8.994;2023-05-17T00:59:01;6.20;99.90
6662;DHT22;3367;48.714;8.994;2023-05-17T01:01:28;6.10;99.90
6662;DHT22;3367;48.714;8.994;2023-05-17T01:03:55;6.10;99.90
6662;DHT22;3367;48.714;8.994;2023-05-17T01:06:23;6.00;99.90
6662;DHT22;3367;48.714;8.994;2023-05-17T01:08:49;6.00;99.90
6662;DHT22;3367;48.714;8.994;2023-05-17T01:11:28;5.90;99.90
6662;DHT22;3367;48.714;8.994;2023-05-17T01:14:04;5.90;99.90
6662;DHT22;3367;48.714;8.994;2023-05-17T01:16:38;5.90;99.90
6662;DHT22;3367;48.714;8.994;2023-05-17T01:19:11;5.90;99.90
6662;DHT22;3367;48.714;8.994;2023-05-17T01:21:56;5.90;99.90
6662;DHT22;3367;48.714;8.994;2023-05-17T01:24:26;5.90;99.90
6662;DHT22;3367;48.714;8.994;2023-05-17T01:26:55;5.90;99.90
6662;DHT22;3367;48.714;8.994;2023-05-17T01:32:54;5.90;99.90
6662;DHT22;3367;48.714;8.994;2023-05-17T01:35:22;5.90;99.90
6662;DHT22;3367;48.714;8.994;2023-05-17T01:37:48;6.00;99.90
6662;DHT22;3367;48.714;8.994;2023-05-17T01:40:16;6.00;99.90
6662;DHT22;3367;48.714;8.994;2023-05-17T01:42:47;6.00;99.90
6662;DHT22;3367;48.714;8.994;2023-05-17T01:45:18;6.00;99.90
6662;DHT22;3367;48.714;8.994;2023-05-17T01:47:57;6.00;99.90
6662;DHT22;3367;48.714;8.994;2023-05-17T01:50:27;6.00;99.90
6662;DHT22;3367;48.714;8.994;2023-05-17T01:53:00;6.00;99.90
6662;DHT22;3367;48.714;8.994;2023-05-17T01:55:36;6.00;99.90
6662;DHT22;3367;48.714;8.994;2023-05-17T01:58:09;5.90;99.90
6662;DHT22;3367;48.714;8.994;2023-05-17T02:00:37;5.90;99.90
6662;DHT22;3367;48.714;8.994;2023-05-17T02:03:05;5.80;99.90
6662;DHT22;3367;48.714;8.994;2023-05-17T02:05:31;5.70;1.00
6662;DHT22;3367;48.714;8.994;2023-05-17T02:07:58;5.70;1.00
6662;DHT22;3367;48.714;8.994;2023-05-17T02:10:25;5.60;1.00
6662;DHT22;3367;48.714;8.994;2023-05-17T02:12:51;5.60;1.00
6662;DHT22;3367;48.714;8.994;2023-05-17T02:15:19;5.50;1.00
6662;DHT22;3367;48.714;8.994;2023-05-17T02:17:46;5.50;1.00
6662;DHT22;3367;48.714;8.994;2023-05-17T02:20:13;5.40;1.00
6662;DHT22;3367;48.714;8.994;2023-05-17T02:22:40;5.40;1.00
6662;DHT22;3367;48.714;8.994;2023-05-17T02:25:07;5.30;1.00
6662;DHT22;3367;48.714;8.994;2023-05-17T02:27:34;5.30;1.00
6662;DHT22;3367;48.714;8.994;2023-05-17T02:30:00;5.30;1.00
6662;DHT22;3367;48.714;8.994;2023-05-17T02:32:30;5.30;1.00
6662;DHT22;3367;48.714;8.994;2023-05-17T02:34:57;5.30;1.00
6662;DHT22;3367;48.714;8.994;2023-05-17T02:37:24;5.30;1.00
6662;DHT22;3367;48.714;8.994;2023-05-17T02:39:51;5.20;1.00
6662;DHT22;3367;48.714;8.994;2023-05-17T02:42:17;5.20;1.00
6662;DHT22;3367;48.714;8.994;2023-05-17T02:44:44;5.10;1.00
6662;DHT22;3367;48.714;8.994;2023-05-17T02:47:13;5.10;1.00
6662;DHT22;3367;48.714;8.994;2023-05-17T02:49:41;5.00;1.00
6662;DHT22;3367;48.714;8.994;2023-05-17T02:52:07;5.00;1.00
6662;DHT22;3367;48.714;8.994;2023-05-17T02:54:34;5.00;1.00
6662;DHT22;3367;48.714;8.994;2023-05-17T02:57:01;5.10;1.00
6662;DHT22;3367;48.714;8.994;2023-05-17T02:59:28;5.10;1.00
6662;DHT22;3367;48.714;8.994;2023-05-17T03:01:55;5.10;1.00
6662;DHT22;3367;48.714;8.994;2023-05-17T03:04:22;5.10;1.00
6662;DHT22;3367;48.714;8.994;2023-05-17T03:06:50;5.00;1.00
6662;DHT22;3367;48.714;8.994;2023-05-17T03:09:16;5.00;1.00
6662;DHT22;3367;48.714;8.994;2023-05-17T03:11:43;5.00;60.30
6662;DHT22;3367;48.714;8.994;2023-05-17T03:14:10;4.90;92.00
6662;DHT22;3367;48.714;8.994;2023-05-17T03:16:37;4.90;77.00
6662;DHT22;3367;48.714;8.994;2023-05-17T03:19:03;4.80;99.90
6662;DHT22;3367;48.714;8.994;2023-05-17T03:21:30;4.80;99.90
6662;DHT22;3367;48.714;8.994;2023-05-17T03:23:58;4.80;99.90
6662;DHT22;3367;48.714;8.994;2023-05-17T03:26:25;4.70;99.90
6662;DHT22;3367;48.714;8.994;2023-05-17T03:28:52;4.70;99.90
6662;DHT22;3367;48.714;8.994;2023-05-17T03:31:19;4.70;99.90
6662;DHT22;3367;48.714;8.994;2023-05-17T03:33:45;4.70;99.90
6662;DHT22;3367;48.714;8.994;2023-05-17T03:36:12;4.60;99.90
6662;DHT22;3367;48.714;8.994;2023-05-17T03:38:39;4.60;99.90
6662;DHT22;3367;48.714;8.994;2023-05-17T03:41:07;4.50;99.90
6662;DHT22;3367;48.714;8.994;2023-05-17T03:43:34;4.50;99.90
6662;DHT22;3367;48.714;8.994;2023-05-17T03:46:01;4.50;1.00
6662;DHT22;3367;48.714;8.994;2023-05-17T03:48:27;4.50;1.00
6662;DHT22;3367;48.714;8.994;2023-05-17T03:50:54;4.50;1.00
6662;DHT22;3367;48.714;8.994;2023-05-17T03:53:21;4.40;1.00
6662;DHT22;3367;48.714;8.994;2023-05-17T03:55:47;4.40;1.00
6662;DHT22;3367;48.714;8.994;2023-05-17T03:58:15;4.40;1.00
6662;DHT22;3367;48.714;8.994;2023-05-17T04:00:42;4.40;1.00
6662;DHT22;3367;48.714;8.994;2023-05-17T04:03:09;4.40;1.00
6662;DHT22;3367;48.714;8.994;2023-05-17T04:05:38;4.30;1.00
6662;DHT22;3367;48.714;8.994;2023-05-17T04:08:05;4.40;1.00
6662;DHT22;3367;48.714;8.994;2023-05-17T04:10:31;4.50;1.00
6662;DHT22;3367;48.714;8.994;2023-05-17T04:12:58;4.50;1.00
6662;DHT22;3367;48.714;8.994;2023-05-17T04:15:27;4.60;1.00
6662;DHT22;3367;48.714;8.994;2023-05-17T04:17:53;4.60;1.00
6662;DHT22;3367;48.714;8.994;2023-05-17T04:20:20;4.70;1.00
6662;DHT22;3367;48.714;8.994;2023-05-17T04:22:47;4.70;1.00
6662;DHT22;3367;48.714;8.994;2023-05-17T04:25:13;4.80;1.00
6662;DHT22;3367;48.714;8.994;2023-05-17T04:27:40;4.80;1.00
6662;DHT22;3367;48.714;8.994;2023-05-17T04:30:08;4.80;1.00
6662;DHT22;3367;48.714;8.994;2023-05-17T04:32:36;4.90;1.00
6662;DHT22;3367;48.714;8.994;2023-05-17T04:35:03;5.00;1.00
6662;DHT22;3367;48.714;8.994;2023-05-17T04:37:30;5.10;99.90
6662;DHT22;3367;48.714;8.994;2023-05-17T04:39:57;5.10;99.90
6662;DHT22;3367;48.714;8.994;2023-05-17T04:42:24;5.20;99.90
6662;DHT22;3367;48.714;8.994;2023-05-17T04:44:50;5.30;99.90
6662;DHT22;3367;48.714;8.994;2023-05-17T04:47:17;5.40;99.90
6662;DHT22;3367;48.714;8.994;2023-05-17T04:49:45;5.40;99.90
6662;DHT22;3367;48.714;8.994;2023-05-17T04:52:13;5.50;92.00
6662;DHT22;3367;48.714;8.994;2023-05-17T04:54:39;5.60;39.40
6662;DHT22;3367;48.714;8.994;2023-05-17T04:57:06;5.70;1.00
6662;DHT22;3367;48.714;8.994;2023-05-17T04:59:33;5.80;1.00
6662;DHT22;3367;48.714;8.994;2023-05-17T05:01:59;5.80;1.00
6662;DHT22;3367;48.714;8.994;2023-05-17T05:04:26;5.90;1.00
6662;DHT22;3367;48.714;8.994;2023-05-17T05:06:54;6.00;1.00
6662;DHT22;3367;48.714;8.994;2023-05-17T05:09:21;6.10;1.00
6662;DHT22;3367;48.714;8.994;2023-05-17T05:11:47;6.20;1.00
6662;DHT22;3367;48.714;8.994;2023-05-17T05:14:14;6.40;1.00
6662;DHT22;3367;48.714;8.994;2023-05-17T05:16:41;6.50;1.00
6662;DHT22;3367;48.714;8.994;2023-05-17T05:19:07;6.60;1.00
6662;DHT22;3367;48.714;8.994;2023-05-17T05:21:34;6.80;1.00
6662;DHT22;3367;48.714;8.994;2023-05-17T05:24:02;6.80;99.90
6662;DHT22;3367;48.714;8.994;2023-05-17T05:26:29;6.90;99.90
6662;DHT22;3367;48.714;8.994;2023-05-17T05:28:56;7.10;99.90
6662;DHT22;3367;48.714;8.994;2023-05-17T05:31:23;7.30;99.90
6662;DHT22;3367;48.714;8.994;2023-05-17T05:33:49;7.60;99.90
6662;DHT22;3367;48.714;8.994;2023-05-17T05:36:16;7.80;99.90
6662;DHT22;3367;48.714;8.994;2023-05-17T05:38:43;8.10;99.90
6662;DHT22;3367;48.714;8.994;2023-05-17T05:41:11;8.40;99.90
6662;DHT22;3367;48.714;8.994;2023-05-17T05:43:37;8.70;99.90
6662;DHT22;3367;48.714;8.994;2023-05-17T05:46:04;9.10;97.30
6662;DHT22;3367;48.714;8.994;2023-05-17T05:48:32;9.30;76.90
6662;DHT22;3367;48.714;8.994;2023-05-17T05:50:59;9.70;51.20
6662;DHT22;3367;48.714;8.994;2023-05-17T05:53:25;9.90;19.60
6662;DHT22;3367;48.714;8.994;2023-05-17T05:55:52;10.20;1.00
6662;DHT22;3367;48.714;8.994;2023-05-17T05:58:20;10.30;1.00
6662;DHT22;3367;48.714;8.994;2023-05-17T06:00:47;10.50;1.00
6662;DHT22;3367;48.714;8.994;2023-05-17T06:03:13;10.50;1.00
6662;DHT22;3367;48.714;8.994;2023-05-17T06:05:40;10.70;1.00
6662;DHT22;3367;48.714;8.994;2023-05-17T06:08:07;11.10;1.00
6662;DHT22;3367;48.714;8.994;2023-05-17T06:10:34;11.30;1.00
6662;DHT22;3367;48.714;8.994;2023-05-17T06:13:00;11.10;1.00
6662;DHT22;3367;48.714;8.994;2023-05-17T06:15:30;11.10;1.00
6662;DHT22;3367;48.714;8.994;2023-05-17T06:17:57;10.90;1.00
6662;DHT22;3367;48.714;8.994;2023-05-17T06:20:23;11.10;1.00
6662;DHT22;3367;48.714;8.994;2023-05-17T06:22:50;11.30;1.00
6662;DHT22;3367;48.714;8.994;2023-05-17T06:25:17;11.20;1.00
6662;DHT22;3367;48.714;8.994;2023-05-17T06:27:44;11.50;1.00
6662;DHT22;3367;48.714;8.994;2023-05-17T06:30:11;11.50;1.00
6662;DHT22;3367;48.714;8.994;2023-05-17T06:32:40;11.40;1.00
6662;DHT22;3367;48.714;8.994;2023-05-17T06:35:08;11.60;1.00
6662;DHT22;3367;48.714;8.994;2023-05-17T06:37:35;11.40;1.00
6662;DHT22;3367;48.714;8.994;2023-05-17T06:40:02;11.60;1.00
6662;DHT22;3367;48.714;8.994;2023-05-17T06:42:30;11.80;1.00
6662;DHT22;3367;48.714;8.994;2023-05-17T06:44:57;11.70;1.00
6662;DHT22;3367;48.714;8.994;2023-05-17T06:47:24;11.40;1.00
6662;DHT22;3367;48.714;8.994;2023-05-17T06:49:52;11.50;1.00
6662;DHT22;3367;48.714;8.994;2023-05-17T06:52:18;11.70;1.00
6662;DHT22;3367;48.714;8.994;2023-05-17T06:54:45;12.10;1.00
6662;DHT22;3367;48.714;8.994;2023-05-17T06:57:12;11.90;1.00
6662;DHT22;3367;48.714;8.994;2023-05-17T06:59:38;12.10;1.00
6662;DHT22;3367;48.714;8.994;2023-05-17T07:02:05;12.20;1.00
6662;DHT22;3367;48.714;8.994;2023-05-17T07:04:32;12.30;1.00
6662;DHT22;3367;48.714;8.994;2023-05-17T07:07:00;11.80;1.00
6662;DHT22;3367;48.714;8.994;2023-05-17T07:09:27;11.80;1.00
6662;DHT22;3367;48.714;8.994;2023-05-17T07:11:53;12.00;1.00
6662;DHT22;3367;48.714;8.994;2023-05-17T07:14:20;12.10;1.00
6662;DHT22;3367;48.714;8.994;2023-05-17T07:16:47;12.50;1.00
6662;DHT22;3367;48.714;8.994;2023-05-17T07:19:13;13.00;1.00
6662;DHT22;3367;48.714;8.994;2023-05-17T07:21:40;12.90;1.00
6662;DHT22;3367;48.714;8.994;2023-05-17T07:24:08;12.70;1.00
6662;DHT22;3367;48.714;8.994;2023-05-17T07:26:35;12.80;1.00
6662;DHT22;3367;48.714;8.994;2023-05-17T07:29:01;12.70;1.00
6662;DHT22;3367;48.714;8.994;2023-05-17T07:31:28;12.70;1.00
6662;DHT22;3367;48.714;8.994;2023-05-17T07:33:55;12.80;1.00
6662;DHT22;3367;48.714;8.994;2023-05-17T07:36:21;12.30;1.00
6662;DHT22;3367;48.714;8.994;2023-05-17T07:38:48;12.50;1.00
6662;DHT22;3367;48.714;8.994;2023-05-17T07:41:16;12.30;1.00
6662;DHT22;3367;48.714;8.994;2023-05-17T07:43:46;12.70;1.00
6662;DHT22;3367;48.714;8.994;2023-05-17T07:46:13;12.80;1.00
6662;DHT22;3367;48.714;8.994;2023-05-17T07:48:40;12.40;1.00
6662;DHT22;3367;48.714;8.994;2023-05-17T07:51:06;11.90;1.00
6662;DHT22;3367;48.714;8.994;2023-05-17T07:53:33;11.50;1.00
6662;DHT22;3367;48.714;8.994;2023-05-17T07:56:00;11.60;1.00
6662;DHT22;3367;48.714;8.994;2023-05-17T07:58:28;12.00;1.00
6662;DHT22;3367;48.714;8.994;2023-05-17T08:00:55;12.20;1.00
6662;DHT22;3367;48.714;8.994;2023-05-17T08:03:21;12.50;1.00
6662;DHT22;3367;48.714;8.994;2023-05-17T08:05:48;12.50;1.00
6662;DHT22;3367;48.714;8.994;2023-05-17T08:08:15;12.40;1.00
6662;DHT22;3367;48.714;8.994;2023-05-17T08:10:41;12.50;1.00
6662;DHT22;3367;48.714;8.994;2023-05-17T08:13:08;12.40;1.00
6662;DHT22;3367;48.714;8.994;2023-05-17T08:15:36;11.60;1.00
6662;DHT22;3367;48.714;8.994;2023-05-17T08:18:03;11.40;1.00
6662;DHT22;3367;48.714;8.994;2023-05-17T08:20:30;11.40;1.00
6662;DHT22;3367;48.714;8.994;2023-05-17T08:22:57;11.50;1.00
6662;DHT22;3367;48.714;8.994;2023-05-17T08:25:24;11.70;1.00
6662;DHT22;3367;48.714;8.994;2023-05-17T08:27:50;11.60;1.00
6662;DHT22;3367;48.714;8.994;2023-05-17T08:30:17;11.50;1.00
6662;DHT22;3367;48.714;8.994;2023-05-17T08:32:46;11.30;1.00
6662;DHT22;3367;48.714;8.994;2023-05-17T08:35:13;11.20;1.00
6662;DHT22;3367;48.714;8.994;2023-05-17T08:37:40;11.60;1.00
6662;DHT22;3367;48.714;8.994;2023-05-17T08:40:08;11.40;1.00
6662;DHT22;3367;48.714;8.994;2023-05-17T08:42:35;11.20;1.00
6662;DHT22;3367;48.714;8.994;2023-05-17T08:45:04;11.20;1.00
6662;DHT22;3367;48.714;8.994;2023-05-17T08:47:34;11.30;1.00
6662;DHT22;3367;48.714;8.994;2023-05-17T08:50:04;11.70;1.00
6662;DHT22;3367;48.714;8.994;2023-05-17T08:52:32;11.80;1.00
6662;DHT22;3367;48.714;8.994;2023-05-17T08:55:00;12.20;1.00
6662;DHT22;3367;48.714;8.994;2023-05-17T08:57:32;12.60;1.00
6662;DHT22;3367;48.714;8.994;2023-05-17T09:00:00;12.10;1.00
6662;DHT22;3367;48.714;8.994;2023-05-17T09:02:29;11.90;1.00
6662;DHT22;3367;48.714;8.994;2023-05-17T09:04:57;12.30;1.00
6662;DHT22;3367;48.714;8.994;2023-05-17T09:07:25;12.40;1.00
6662;DHT22;3367;48.714;8.994;2023-05-17T09:09:53;12.10;1.00
6662;DHT22;3367;48.714;8.994;2023-05-17T09:12:20;12.20;1.00
6662;DHT22;3367;48.714;8.994;2023-05-17T09:14:46;12.20;1.00
6662;DHT22;3367;48.714;8.994;2023-05-17T09:17:14;11.90;1.00
6662;DHT22;3367;48.714;8.994;2023-05-17T09:19:45;11.70;1.00
6662;DHT22;3367;48.714;8.994;2023-05-17T09:22:13;11.60;1.00
6662;DHT22;3367;48.714;8.994;2023-05-17T09:24:42;11.80;1.00
6662;DHT22;3367;48.714;8.994;2023-05-17T09:27:13;11.70;1.00
6662;DHT22;3367;48.714;8.994;2023-05-17T09:29:40;11.50;1.00
6662;DHT22;3367;48.714;8.994;2023-05-17T09:32:14;11.40;1.00
6662;DHT22;3367;48.714;8.994;2023-05-17T09:34:41;11.50;1.00
6662;DHT22;3367;48.714;8.994;2023-05-17T09:37:12;11.80;1.00
6662;DHT22;3367;48.714;8.994;2023-05-17T09:39:39;12.00;1.00
6662;DHT22;3367;48.714;8.994;2023-05-17T09:42:07;12.30;1.00
6662;DHT22;3367;48.714;8.994;2023-05-17T09:44:45;12.20;1.00
6662;DHT22;3367;48.714;8.994;2023-05-17T09:47:23;12.00;1.00
6662;DHT22;3367;48.714;8.994;2023-05-17T09:49:50;12.10;1.00
6662;DHT22;3367;48.714;8.994;2023-05-17T09:52:18;12.40;1.00
6662;DHT22;3367;48.714;8.994;2023-05-17T09:54:52;12.80;1.00
6662;DHT22;3367;48.714;8.994;2023-05-17T09:57:20;12.90;1.00
6662;DHT22;3367;48.714;8.994;2023-05-17T09:59:48;12.90;1.00
6662;DHT22;3367;48.714;8.994;2023-05-17T10:02:19;12.60;1.00
6662;DHT22;3367;48.714;8.994;2023-05-17T10:04:48;12.40;1.00
6662;DHT22;3367;48.714;8.994;2023-05-17T10:07:17;12.40;1.00
6662;DHT22;3367;48.714;8.994;2023-05-17T10:09:46;12.30;1.00
6662;DHT22;3367;48.714;8.994;2023-05-17T10:12:16;12.50;1.00
6662;DHT22;3367;48.714;8.994;2023-05-17T10:14:45;12.50;1.00
6662;DHT22;3367;48.714;8.994;2023-05-17T10:17:13;12.50;1.00
6662;DHT22;3367;48.714;8.994;2023-05-17T10:19:40;12.70;1.00
6662;DHT22;3367;48.714;8.994;2023-05-17T10:22:07;12.70;1.00
6662;DHT22;3367;48.714;8.994;2023-05-17T10:24:34;12.80;1.00
6662;DHT22;3367;48.714;8.994;2023-05-17T10:27:02;13.00;1.00
6662;DHT22;3367;48.714;8.994;2023-05-17T10:29:32;12.70;1.00
6662;DHT22;3367;48.714;8.994;2023-05-17T10:32:02;12.50;1.00
6662;DHT22;3367;48.714;8.994;2023-05-17T10:34:30;12.90;1.00
6662;DHT22;3367;48.714;8.994;2023-05-17T10:37:00;13.20;1.00
6662;DHT22;3367;48.714;8.994;2023-05-17T10:39:27;13.20;1.00
6662;DHT22;3367;48.714;8.994;2023-05-17T10:41:55;13.40;1.00
6662;DHT22;3367;48.714;8.994;2023-05-17T10:44:23;13.50;1.00
6662;DHT22;3367;48.714;8.994;2023-05-17T10:46:52;13.60;1.00
6662;DHT22;3367;48.714;8.994;2023-05-17T10:49:23;13.50;1.00
6662;DHT22;3367;48.714;8.994;2023-05-17T10:51:51;13.70;1.00
6662;DHT22;3367;48.714;8.994;2023-05-17T10:54:18;13.90;1.00
6662;DHT22;3367;48.714;8.994;2023-05-17T10:56:49;13.90;1.00
6662;DHT22;3367;48.714;8.994;2023-05-17T10:59:21;13.70;1.00
6662;DHT22;3367;48.714;8.994;2023-05-17T11:01:53;13.70;1.00
6662;DHT22;3367;48.714;8.994;2023-05-17T11:04:23;13.40;1.00
6662;DHT22;3367;48.714;8.994;2023-05-17T11:06:52;13.40;1.00
6662;DHT22;3367;48.714;8.994;2023-05-17T11:09:21;13.70;1.00
6662;DHT22;3367;48.714;8.994;2023-05-17T11:12:06;13.70;1.00
6662;DHT22;3367;48.714;8.994;2023-05-17T11:14:45;13.80;1.00
6662;DHT22;3367;48.714;8.994;2023-05-17T11:17:13;13.60;1.00
6662;DHT22;3367;48.714;8.994;2023-05-17T11:19:54;13.30;1.00
6662;DHT22;3367;48.714;8.994;2023-05-17T11:22:22;12.80;1.00
6662;DHT22;3367;48.714;8.994;2023-05-17T11:24:50;12.60;1.00
6662;DHT22;3367;48.714;8.994;2023-05-17T11:27:18;12.70;1.00
6662;DHT22;3367;48.714;8.994;2023-05-17T11:29:46;13.10;1.00
6662;DHT22;3367;48.714;8.994;2023-05-17T11:32:13;13.10;1.00
6662;DHT22;3367;48.714;8.994;2023-05-17T11:34:39;13.00;1.00
6662;DHT22;3367;48.714;8.994;2023-05-17T11:37:10;13.20;1.00
6662;DHT22;3367;48.714;8.994;2023-05-17T11:40:02;13.20;1.00
6662;DHT22;3367;48.714;8.994;2023-05-17T11:42:30;13.20;1.00
6662;DHT22;3367;48.714;8.994;2023-05-17T11:44:59;13.40;1.00
6662;DHT22;3367;48.714;8.994;2023-05-17T11:47:27;13.30;1.00
6662;DHT22;3367;48.714;8.994;2023-05-17T11:49:54;13.20;1.00
6662;DHT22;3367;48.714;8.994;2023-05-17T11:52:21;13.10;1.00
6662;DHT22;3367;48.714;8.994;2023-05-17T11:54:48;13.10;1.00
6662;DHT22;3367;48.714;8.994;2023-05-17T11:57:17;12.60;1.00
6662;DHT22;3367;48.714;8.994;2023-05-17T11:59:46;12.70;1.00
6662;DHT22;3367;48.714;8.994;2023-05-17T12:02:25;12.70;1.00
6662;DHT22;3367;48.714;8.994;2023-05-17T12:04:52;12.80;1.00
6662;DHT22;3367;48.714;8.994;2023-05-17T12:07:19;12.60;1.00
6662;DHT22;3367;48.714;8.994;2023-05-17T12:09:46;12.50;1.00
6662;DHT22;3367;48.714;8.994;2023-05-17T12:12:13;12.30;1.00
6662;DHT22;3367;48.714;8.994;2023-05-17T12:14:43;12.30;1.00
6662;DHT22;3367;48.714;8.994;2023-05-17T12:17:14;12.50;1.00
6662;DHT22;3367;48.714;8.994;2023-05-17T12:19:41;12.50;1.00
6662;DHT22;3367;48.714;8.994;2023-05-17T12:22:09;12.60;1.00
6662;DHT22;3367;48.714;8.994;2023-05-17T12:24:37;12.60;1.00
6662;DHT22;3367;48.714;8.994;2023-05-17T12:27:04;12.60;1.00
6662;DHT22;3367;48.714;8.994;2023-05-17T12:29:31;12.90;1.00
6662;DHT22;3367;48.714;8.994;2023-05-17T12:31:59;12.90;1.00
6662;DHT22;3367;48.714;8.994;2023-05-17T12:34:27;12.80;1.00
6662;DHT22;3367;48.714;8.994;2023-05-17T12:36:55;13.00;1.00
6662;DHT22;3367;48.714;8.994;2023-05-17T12:39:22;13.30;1.00
6662;DHT22;3367;48.714;8.994;2023-05-17T12:41:49;13.40;1.00
6662;DHT22;3367;48.714;8.994;2023-05-17T12:44:17;13.30;1.00
6662;DHT22;3367;48.714;8.994;2023-05-17T12:46:45;13.20;1.00
6662;DHT22;3367;48.714;8.994;2023-05-17T12:49:16;13.50;1.00
6662;DHT22;3367;48.714;8.994;2023-05-17T12:51:44;13.40;1.00
6662;DHT22;3367;48.714;8.994;2023-05-17T12:54:11;13.20;1.00
6662;DHT22;3367;48.714;8.994;2023-05-17T12:56:41;13.20;1.00
6662;DHT22;3367;48.714;8.994;2023-05-17T12:59:11;13.40;1.00
6662;DHT22;3367;48.714;8.994;2023-05-17T13:01:40;13.50;1.00
6662;DHT22;3367;48.714;8.994;2023-05-17T13:04:08;13.10;1.00
6662;DHT22;3367;48.714;8.994;2023-05-17T13:06:47;13.30;1.00
6662;DHT22;3367;48.714;8.994;2023-05-17T13:09:14;13.20;1.00
6662;DHT22;3367;48.714;8.994;2023-05-17T13:11:42;13.30;1.00
6662;DHT22;3367;48.714;8.994;2023-05-17T13:14:10;13.30;1.00
6662;DHT22;3367;48.714;8.994;2023-05-17T13:16:38;12.90;1.00
6662;DHT22;3367;48.714;8.994;2023-05-17T13:19:11;12.90;1.00
6662;DHT22;3367;48.714;8.994;2023-05-17T13:21:38;13.00;1.00
6662;DHT22;3367;48.714;8.994;2023-05-17T13:24:08;13.10;1.00
6662;DHT22;3367;48.714;8.994;2023-05-17T13:26:34;13.00;1.00
6662;DHT22;3367;48.714;8.994;2023-05-17T13:29:01;13.20;1.00
6662;DHT22;3367;48.714;8.994;2023-05-17T13:31:28;13.00;1.00
6662;DHT22;3367;48.714;8.994;2023-05-17T13:33:55;13.00;1.00
6662;DHT22;3367;48.714;8.994;2023-05-17T13:36:21;12.90;1.00
6662;DHT22;3367;48.714;8.994;2023-05-17T13:38:48;12.80;1.00
6662;DHT22;3367;48.714;8.994;2023-05-17T13:41:16;12.90;1.00
6662;DHT22;3367;48.714;8.994;2023-05-17T13:43:43;13.00;1.00
6662;DHT22;3367;48.714;8.994;2023-05-17T13:46:10;12.90;1.00
6662;DHT22;3367;48.714;8.994;2023-05-17T13:48:37;13.00;1.00
6662;DHT22;3367;48.714;8.994;2023-05-17T13:51:03;13.10;1.00
6662;DHT22;3367;48.714;8.994;2023-05-17T13:53:30;13.30;1.00
6662;DHT22;3367;48.714;8.994;2023-05-17T13:55:57;13.20;1.00
6662;DHT22;3367;48.714;8.994;2023-05-17T13:58:25;13.10;1.00
6662;DHT22;3367;48.714;8.994;2023-05-17T14:00:52;13.00;1.00
6662;DHT22;3367;48.714;8.994;2023-05-17T14:03:19;13.00;1.00
6662;DHT22;3367;48.714;8.994;2023-05-17T14:05:46;13.00;1.00
6662;DHT22;3367;48.714;8.994;2023-05-17T14:08:14;13.00;1.00
6662;DHT22;3367;48.714;8.994;2023-05-17T14:10:41;13.00;1.00
6662;DHT22;3367;48.714;8.994;2023-05-17T14:13:08;12.80;1.00
6662;DHT22;3367;48.714;8.994;2023-05-17T14:15:37;12.70;1.00
6662;DHT22;3367;48.714;8.994;2023-05-17T14:18:06;12.70;1.00
6662;DHT22;3367;48.714;8.994;2023-05-17T14:20:33;12.50;1.00
6662;DHT22;3367;48.714;8.994;2023-05-17T14:23:00;12.50;1.00
6662;DHT22;3367;48.714;8.994;2023-05-17T14:25:27;12.50;1.00
6662;DHT22;3367;48.714;8.994;2023-05-17T14:27:54;12.50;1.00
6662;DHT22;3367;48.714;8.994;2023-05-17T14:30:21;12.50;1.00
6662;DHT22;3367;48.714;8.994;2023-05-17T14:32:49;12.60;1.00
6662;DHT22;3367;48.714;8.994;2023-05-17T14:35:16;12.50;1.00
6662;DHT22;3367;48.714;8.994;2023-05-17T14:37:43;12.50;1.00
6662;DHT22;3367;48.714;8.994;2023-05-17T14:40:10;12.60;1.00
6662;DHT22;3367;48.714;8.994;2023-05-17T14:42:37;12.70;1.00
6662;DHT22;3367;48.714;8.994;2023-05-17T14:45:05;12.80;1.00
6662;DHT22;3367;48.714;8.994;2023-05-17T14:47:33;12.80;1.00
6662;DHT22;3367;48.714;8.994;2023-05-17T14:50:01;12.70;1.00
6662;DHT22;3367;48.714;8.994;2023-05-17T14:52:28;12.60;1.00
6662;DHT22;3367;48.714;8.994;2023-05-17T14:54:55;12.70;1.00
6662;DHT22;3367;48.714;8.994;2023-05-17T14:57:22;12.80;1.00
6662;DHT22;3367;48.714;8.994;2023-05-17T14:59:49;12.70;1.00
6662;DHT22;3367;48.714;8.994;2023-05-17T15:02:16;12.70;1.00
6662;DHT22;3367;48.714;8.994;2023-05-17T15:04:43;12.60;1.00
6662;DHT22;3367;48.714;8.994;2023-05-17T15:07:11;12.70;1.00
6662;DHT22;3367;48.714;8.994;2023-05-17T15:09:38;12.60;1.00
6662;DHT22;3367;48.714;8.994;2023-05-17T15:12:07;12.60;1.00
6662;DHT22;3367;48.714;8.994;2023-05-17T15:14:34;12.50;1.00
6662;DHT22;3367;48.714;8.994;2023-05-17T15:17:00;12.20;1.00
6662;DHT22;3367;48.714;8.994;2023-05-17T15:19:28;12.40;1.00
6662;DHT22;3367;48.714;8.994;2023-05-17T15:21:55;12.50;1.00
6662;DHT22;3367;48.714;8.994;2023-05-17T15:24:23;12.10;1.00
6662;DHT22;3367;48.714;8.994;2023-05-17T15:26:50;12.00;1.00
6662;DHT22;3367;48.714;8.994;2023-05-17T15:29:17;11.90;1.00
6662;DHT22;3367;48.714;8.994;2023-05-17T15:31:44;11.90;1.00
6662;DHT22;3367;48.714;8.994;2023-05-17T15:34:10;11.80;1.00
6662;DHT22;3367;48.714;8.994;2023-05-17T15:36:37;11.90;1.00
6662;DHT22;3367;48.714;8.994;2023-05-17T15:39:04;11.90;1.00
6662;DHT22;3367;48.714;8.994;2023-05-17T15:41:32;11.90;1.00
6662;DHT22;3367;48.714;8.994;2023-05-17T15:43:58;11.90;1.00
6662;DHT22;3367;48.714;8.994;2023-05-17T15:46:26;11.90;1.00
6662;DHT22;3367;48.714;8.994;2023-05-17T15:48:52;12.00;1.00
6662;DHT22;3367;48.714;8.994;2023-05-17T15:51:20;11.90;1.00
6662;DHT22;3367;48.714;8.994;2023-05-17T15:53:47;11.90;1.00
6662;DHT22;3367;48.714;8.994;2023-05-17T15:56:14;11.90;1.00
6662;DHT22;3367;48.714;8.994;2023-05-17T15:58:43;12.00;1.00
6662;DHT22;3367;48.714;8.994;2023-05-17T16:01:09;11.90;1.00
6662;DHT22;3367;48.714;8.994;2023-05-17T16:03:36;12.00;1.00
6662;DHT22;3367;48.714;8.994;2023-05-17T16:06:03;12.10;1.00
6662;DHT22;3367;48.714;8.994;2023-05-17T16:08:30;12.20;1.00
6662;DHT22;3367;48.714;8.994;2023-05-17T16:10:57;12.20;1.00
6662;DHT22;3367;48.714;8.994;2023-05-17T16:13:24;12.10;1.00
6662;DHT22;3367;48.714;8.994;2023-05-17T16:15:52;12.10;1.00
6662;DHT22;3367;48.714;8.994;2023-05-17T16:18:19;12.10;1.00
6662;DHT22;3367;48.714;8.994;2023-05-17T16:20:46;12.00;1.00
6662;DHT22;3367;48.714;8.994;2023-05-17T16:23:13;11.90;1.00
6662;DHT22;3367;48.714;8.994;2023-05-17T16:25:39;11.90;1.00